x

Southeast Hawaii - 205 Nm Southeast Of Hilo, Hi (51004) Wave Buoy

7:50pm - Tue 1st Sep 2015 All times are HST. -10 hours from GMT.

  • Sig Wave height 11.2ft
  • Swell Direction
  • Peak Period 16s
  • Average Period 12s
  • Wind
    9mph, 11mph gusts
  • Sea Temp 84°f
  • Air Temp 83°f
  • Sea Pressure 1012.1mb
  • Southeast Hawaii - 205 Nm Southeast Of Hilo, Hi
  • Southeast Hawaii - 205 Nm Southeast Of Hilo, Hi

More Historic Weather Station data

Upgrade to MSW Pro to gain access to the past 30 days of data for over 8000 Wavebouys and Weather Stations around the globe.

Join Pro

Comparision Forecast

View Surf forecast
   
Tue 09/01 7:50pm 11ft 16s 12s 9 11 mph 1012.1mb 84f 83f
6:50pm 11ft 16s 12s 9 11 mph 1011.2mb 84f 83f
5:50pm 12ft 16s 12s 11 13 mph 1010.6mb 85f 83f
4:50pm 9ft 16s 10s 9 11 mph 1010.3mb 86f 83f
3:50pm 9.5ft 16s 11s 7 9 mph 1010.4mb 87f 83f
2:50pm 9.5ft 16s 10s 4 7 mph 1010.5mb 87f 83f
1:50pm 8.5ft 16s 10s 4 7 mph 1010.8mb 87f 83f
12:50pm 8ft 16s 9s 4 9 mph 1011.5mb 87f 83f
11:50am 8ft 11s 9s 4 7 mph 1012mb 87f 83f
10:50am 8ft 11s 9s 2 4 mph 1012.2mb 87f 83f
9:50am 8ft 11s 9s  -  2 mph 1012.4mb 85f 83f
8:50am 7.5ft 10s 9s  -  2 mph 1012.1mb 84f 83f
7:50am 8ft 10s 9s 2 4 mph 1011.7mb 83f 82f
6:50am 7.5ft 11s 9s 4
mph
1011.3mb 83f 82f
5:50am 8.5ft 12s 9s 2 4 mph 1010.8mb 83f 81f
4:50am 8.5ft 11s 9s 2 4 mph 1010.4mb 83f 81f
3:50am 9.5ft 11s 9s 2
mph
1010.3mb 83f 81f
2:50am 10ft 11s 9s 4 7 mph 1010.5mb 83f 82f
1:50am 10.5ft 11s 9s 2 4 mph 1011mb 83f 82f
12:50am 11ft 12s 9s 4 7 mph 1011.3mb 83f 82f
Mon 08/31 11:50pm 11ft 13s 9s 2 4 mph 1011.6mb 83f 82f
10:50pm 10ft 11s 9s 2 4 mph 1012mb 83f 82f
9:50pm 9.5ft 12s 9s 4 7 mph 1011.9mb 83f 82f
8:50pm 9.5ft 12s 9s 9
mph
1011.4mb 83f 82f
7:50pm 8ft 11s 8s 9 11 mph 1010.6mb 83f 82f
6:50pm 8.5ft 11s 8s 9 11 mph 1010.2mb 83f 82f
5:50pm 8.5ft 13s 8s 9 11 mph 1009.7mb 83f 83f
4:50pm 8.5ft 11s 8s 9 11 mph 1009.6mb 84f 83f
3:50pm 8ft 11s 8s 11 13 mph 1009.3mb 84f 83f
2:50pm 9.5ft 12s 8s 13 16 mph 1009.3mb 84f 83f
1:50pm 9ft 11s 8s 11 13 mph 1010.1mb 84f 83f
12:50pm 9.5ft 11s 8s 11 13 mph 1010.7mb 83f 83f
11:50am 10.5ft 12s 9s 11 13 mph 1011mb 83f 82f
10:50am 11ft 12s 9s 11 13 mph 1011.3mb 83f 82f
9:50am 11ft 11s 9s 11 13 mph 1011.8mb 83f 82f
8:50am 11ft 12s 10s 9 13 mph 1011.3mb 83f 82f
7:50am 11ft 11s 9s 9 13 mph 1010.8mb 83f 82f
6:50am 11ft 12s 9s 11 13 mph 1010mb 83f 82f
5:50am 10ft 12s 9s 11 13 mph 1009.5mb 83f 81f
4:50am 10ft 12s 8s 11 13 mph 1008.9mb 83f 81f
3:50am 10.5ft 11s 8s 11 13 mph 1008.5mb 83f 81f
2:50am 10ft 11s 8s 16 18 mph 1008.9mb 83f 80f
1:50am 10ft 10s 8s 16 18 mph 1009.1mb 83f 81f
12:50am 10ft 11s 8s 16 20 mph 1009.4mb 83f 80f
Sun 08/30 11:50pm 10ft 11s 8s 13 16 mph 1009.6mb 83f 82f
10:50pm 10.5ft 11s 8s 13 18 mph 1009.9mb 83f 82f
9:50pm 9.5ft 11s 8s 16 18 mph 1009.6mb 83f 82f
8:50pm 10ft 11s 8s 18 20 mph 1009.2mb 83f 82f
7:50pm 9ft 10s 8s 16 18 mph 1008.7mb 83f 82f
6:50pm 9ft 9s 7s 13 16 mph 1008mb 83f 82f
5:50pm 8ft 11s 7s 16 20 mph 1007.5mb 83f 83f
4:50pm 9ft 11s 7s 18 20 mph 1007.2mb 83f 83f
3:50pm 8ft 13s 7s 16 18 mph 1007.3mb 83f 83f
2:50pm 8ft 12s 7s 16 20 mph 1007.7mb 83f 83f
1:50pm 8ft 9s 7s 16 20 mph 1008.3mb 83f 83f
12:50pm 8.5ft 12s 7s 16 20 mph 1009mb 83f 82f
11:50am 9ft 12s 8s 16 20 mph 1009.6mb 83f 82f
10:50am 8.5ft 12s 8s 16 18 mph 1010.1mb 83f 82f
9:50am 9ft 12s 8s 16 18 mph 1010mb 83f 82f
8:50am 8ft 11s 7s 16 18 mph 1009.7mb 83f 82f
7:50am 9ft 12s 8s 18 20 mph 1009.3mb 83f 82f
6:50am 9ft 12s 8s 18 20 mph 1008.8mb 83f 82f
5:50am 9ft 11s 8s 16 18 mph 1008.2mb 83f 82f
4:50am 9ft 11s 8s 16 18 mph 1008.2mb 83f 82f
3:50am 9.5ft 12s 8s 16 20 mph 1008.1mb 83f 82f
2:50am 9ft 13s 8s 13 16 mph 1008.3mb 83f 82f
1:50am 8ft 13s 8s 16 18 mph 1008.7mb 83f 82f
12:50am 8ft 12s 8s 16 18 mph 1009.2mb 83f 82f
Sat 08/29 11:50pm 7ft 12s 7s 13 18 mph 1009.9mb 83f 82f
10:50pm 6.5ft 11s 7s 16 18 mph 1010.1mb 83f 82f
9:50pm 7ft 11s 7s 16 18 mph 1010.2mb 83f 82f
8:50pm 7ft 11s 7s 16 18 mph 1009.7mb 83f 82f
7:50pm 6.5ft 11s 7s 16 18 mph 1008.9mb 83f 82f
6:50pm 7ft 11s 7s 16 18 mph 1008.6mb 83f 82f
5:50pm 6.5ft 15s 7s 16 18 mph 1008.1mb 83f 83f
4:50pm 6.5ft 11s 7s 16 18 mph 1007.9mb 83f 83f
3:50pm 7ft 15s 7s 13 16 mph 1007.9mb 83f 82f
2:50pm 7ft 14s 7s 13 16 mph 1008.3mb 83f 82f
1:50pm 7ft 11s 7s 16 18 mph 1009mb 83f 82f
12:50pm 6ft 15s 6s 16 18 mph 1009.6mb 83f 82f
11:50am 7ft 14s 7s 18 20 mph 1010.2mb 83f 82f
10:50am 6.5ft 16s 6s 18 20 mph 1010.5mb 83f 82f
9:50am 6.5ft 15s 6s 16 20 mph 1010.6mb 83f 82f
8:50am 6ft 16s 6s 18 22 mph 1010.4mb 83f 82f
7:50am 6.5ft 16s 6s 16 22 mph 1010mb 83f 80f
6:50am 6ft 14s 6s 13 18 mph 1009.1mb 83f 79f